createdAt,value
2018-05-04T06:15:21.956Z,13.20
2018-05-04T06:17:47.606Z,13.47
2018-05-04T06:20:13.190Z,13.43
2018-05-04T06:22:38.960Z,12.85
2018-05-04T06:25:04.556Z,12.91
2018-05-04T06:27:30.088Z,13.13
2018-05-04T06:29:56.173Z,13.38
2018-05-04T16:34:04.928Z,23.24
2018-05-04T16:36:30.669Z,23.55
2018-05-04T16:38:56.236Z,23.54
2018-05-04T16:41:21.874Z,23.45
2018-05-04T16:43:48.058Z,23.59
2018-05-04T16:46:32.222Z,23.41
2018-05-04T16:49:16.748Z,23.36
2018-05-04T16:51:42.302Z,23.30
2018-05-04T16:54:07.947Z,23.23
2018-05-04T16:56:33.933Z,23.27
2018-05-04T16:58:59.481Z,23.21
2018-05-04T17:01:25.201Z,23.23
2018-05-04T17:03:50.850Z,23.20
2018-05-04T17:06:16.462Z,23.23
2018-05-04T17:08:42.417Z,22.92
2018-05-04T17:11:07.934Z,23.00
2018-05-04T17:13:33.750Z,22.93
2018-05-04T17:15:59.535Z,22.91
2018-05-04T17:18:25.134Z,22.81
2018-05-04T17:20:50.771Z,23.04
2018-05-04T17:23:16.567Z,22.83
2018-05-04T17:25:42.236Z,22.73
2018-05-04T17:28:07.812Z,22.69
2018-05-04T17:30:33.596Z,22.79
2018-05-04T17:32:59.351Z,22.66
2018-05-04T17:35:24.956Z,22.67
2018-05-04T17:37:50.737Z,22.65
2018-05-04T17:40:16.424Z,22.60
2018-05-04T17:42:41.941Z,22.80
2018-05-04T17:45:07.991Z,22.54
2018-05-04T17:47:33.684Z,22.51
2018-05-04T17:49:59.186Z,22.57
2018-05-04T17:52:25.012Z,22.31
2018-05-04T17:54:50.738Z,22.41
2018-05-04T17:57:16.306Z,22.62
2018-05-04T17:59:42.207Z,22.43
2018-05-04T18:02:07.773Z,22.52
2018-05-04T18:04:33.391Z,22.30
2018-05-04T18:06:59.222Z,22.22
2018-05-04T18:09:24.786Z,22.16
2018-05-04T18:11:50.413Z,22.17
2018-05-04T18:14:16.226Z,22.16
2018-05-04T18:16:41.793Z,22.08
2018-05-04T18:19:07.512Z,22.14
2018-05-04T18:21:33.212Z,22.09
2018-05-04T18:23:58.785Z,22.02
2018-05-04T18:26:24.411Z,22.01
2018-05-04T18:28:50.259Z,22.14
2018-05-04T18:31:15.903Z,22.03
2018-05-04T18:33:41.444Z,22.04
2018-05-04T18:36:07.230Z,21.82
2018-05-04T18:38:32.789Z,21.90
2018-05-04T18:40:58.349Z,21.76
2018-05-04T18:43:24.190Z,21.81
2018-05-04T18:45:50.051Z,21.74
2018-05-04T18:48:15.623Z,22.10
2018-05-04T18:50:41.340Z,21.77
2018-05-04T18:53:06.978Z,21.72
2018-05-04T18:55:32.547Z,22.03
2018-05-04T18:57:58.344Z,22.00
2018-05-04T19:00:24.127Z,21.71
2018-05-04T19:03:08.433Z,21.77
2018-05-04T19:05:34.356Z,21.60
2018-05-04T19:07:59.971Z,21.35
2018-05-04T19:10:25.704Z,21.40
2018-05-04T19:12:51.526Z,21.36
2018-05-04T19:15:17.101Z,21.31
2018-05-04T19:17:42.725Z,21.36
2018-05-04T19:20:08.601Z,21.66
2018-05-04T19:22:34.181Z,21.57
2018-05-04T19:24:59.733Z,21.43
2018-05-04T19:27:25.445Z,21.17
2018-05-04T19:29:51.003Z,21.08
2018-05-04T19:32:16.563Z,21.04
2018-05-04T19:34:42.431Z,20.97
2018-05-04T19:37:07.898Z,20.87
2018-05-04T19:39:33.681Z,20.52
2018-05-04T19:41:59.494Z,20.52
2018-05-04T19:44:25.069Z,20.59
2018-05-04T19:46:50.726Z,20.52
2018-05-04T19:49:16.476Z,20.67
2018-05-04T19:51:42.057Z,20.86
2018-05-04T19:54:07.931Z,20.66
2018-05-04T19:56:33.741Z,20.64
2018-05-04T19:58:59.331Z,20.52
2018-05-04T20:01:25.124Z,20.54
2018-05-04T20:03:50.886Z,20.47
2018-05-04T20:06:16.535Z,20.45
2018-05-04T20:08:42.091Z,20.26
2018-05-04T20:11:07.929Z,20.18
2018-05-04T20:13:33.481Z,20.08
2018-05-04T20:15:59.040Z,20.02
2018-05-04T20:18:25.226Z,20.08
2018-05-04T20:20:51.070Z,20.08
2018-05-04T20:23:16.611Z,20.04
2018-05-04T20:25:42.354Z,20.18
2018-05-04T20:28:07.975Z,20.09
2018-05-04T20:30:33.593Z,19.74
2018-05-04T20:32:59.320Z,19.84
2018-05-04T20:35:25.456Z,19.77
2018-05-04T20:37:51.015Z,19.90
2018-05-04T20:40:16.996Z,19.98
2018-05-04T20:42:43.200Z,19.75
2018-05-04T20:45:08.789Z,19.60
2018-05-04T20:47:34.415Z,19.39
2018-05-04T20:50:00.844Z,19.50
2018-05-04T20:52:26.418Z,19.42
2018-05-04T20:54:51.978Z,19.65
2018-05-04T20:57:18.327Z,19.62
2018-05-04T20:59:43.898Z,19.32
2018-05-04T21:02:09.528Z,19.40
2018-05-04T21:04:35.618Z,19.11
2018-05-04T21:07:01.636Z,19.10
2018-05-04T21:09:27.262Z,19.10
2018-05-04T21:11:54.923Z,19.02
2018-05-04T21:14:20.476Z,18.85
2018-05-04T21:16:46.109Z,18.98
2018-05-04T21:19:12.069Z,19.09
2018-05-04T21:21:38.170Z,19.00
2018-05-04T21:24:03.734Z,19.12
2018-05-04T21:26:29.809Z,19.02
2018-05-04T21:28:55.372Z,18.73
2018-05-04T21:31:21.013Z,18.82
2018-05-04T21:33:47.227Z,18.62
2018-05-04T21:36:12.809Z,18.65
2018-05-04T21:38:38.372Z,18.83
2018-05-04T21:41:04.528Z,18.79
2018-05-04T21:43:30.155Z,18.66
2018-05-04T21:45:55.740Z,18.58
2018-05-04T21:48:21.954Z,18.55
2018-05-04T21:50:47.985Z,18.67
2018-05-04T21:53:13.608Z,18.52
2018-05-04T21:55:39.670Z,18.76
2018-05-04T21:58:05.243Z,18.21
2018-05-04T22:00:30.809Z,18.26
2018-05-04T22:02:56.613Z,18.31
2018-05-04T22:05:22.172Z,18.17
2018-05-04T22:07:47.731Z,18.13
2018-05-04T22:10:13.425Z,18.19
2018-05-04T22:12:39.052Z,18.03
2018-05-04T22:15:04.815Z,18.17
2018-05-04T22:17:30.376Z,18.15
2018-05-04T22:19:56.144Z,18.18
2018-05-04T22:22:21.901Z,18.15
2018-05-04T22:24:47.501Z,17.68
2018-05-04T22:27:13.269Z,17.94
2018-05-04T22:29:39.037Z,18.32
2018-05-04T22:32:04.655Z,17.85
2018-05-04T22:34:30.243Z,17.75
2018-05-04T22:36:56.097Z,17.48
2018-05-04T22:39:21.685Z,17.54
2018-05-04T22:41:47.313Z,17.67
2018-05-04T22:44:13.113Z,17.60
2018-05-04T22:46:38.736Z,17.52
2018-05-04T22:49:04.304Z,17.60
2018-05-04T22:51:30.093Z,17.97
2018-05-04T22:53:55.652Z,17.58
2018-05-04T22:56:21.507Z,17.45
2018-05-04T22:58:47.345Z,17.10
2018-05-04T23:01:12.913Z,17.27
2018-05-04T23:03:38.488Z,16.98
2018-05-04T23:06:04.635Z,16.89
2018-05-04T23:08:30.202Z,17.43
2018-05-04T23:10:55.824Z,17.22
2018-05-04T23:13:21.603Z,16.79
2018-05-04T23:15:47.233Z,16.96
2018-05-04T23:18:12.866Z,16.90
2018-05-04T23:20:38.614Z,16.73
2018-05-04T23:23:04.179Z,17.12
2018-05-04T23:25:29.890Z,16.67
2018-05-04T23:27:55.656Z,16.71
2018-05-04T23:30:21.293Z,16.70
2018-05-04T23:32:46.856Z,16.52
2018-05-04T23:35:12.679Z,16.60
2018-05-04T23:37:38.241Z,16.66
2018-05-04T23:40:03.888Z,16.48
2018-05-04T23:42:29.655Z,16.66
2018-05-04T23:44:55.277Z,16.57
2018-05-04T23:47:20.849Z,16.71
2018-05-04T23:49:46.640Z,16.63
2018-05-04T23:52:12.434Z,16.23
2018-05-04T23:54:38.003Z,16.34
2018-05-04T23:57:03.894Z,16.26
2018-05-04T23:59:29.445Z,16.60
